Time;durP1;ratioP1;P1;durP2;ratioP2;P2;SDS_P1;SDS_P2;PMS_P1;PMS_P2;Temp;Humidity;BMP_temperature;BMP_pressure;BME280_temperature;BME280_humidity;BME280_pressure;Samples;Min_cycle;Max_cycle;Signal;HPM_P1;HPM_P2
2022/02/25 00:01:26;;;;;;;2.10;0.50;;;4.60;99.90;;;;;;1867876;74;21101;-74
2022/02/25 00:03:56;;;;;;;0.47;0.45;;;4.70;99.90;;;;;;1859111;75;21091;-75
2022/02/25 00:06:23;;;;;;;1.98;0.50;;;4.70;99.90;;;;;;1859408;75;21068;-74
2022/02/25 00:08:51;;;;;;;2.05;0.68;;;4.80;99.90;;;;;;1862487;75;21265;-75
2022/02/25 00:11:20;;;;;;;2.70;0.53;;;4.80;99.90;;;;;;1863861;77;21092;-76
2022/02/25 00:13:47;;;;;;;2.85;0.72;;;4.80;99.90;;;;;;1859548;75;21083;-75
2022/02/25 00:16:14;;;;;;;3.90;0.60;;;4.80;99.90;;;;;;1863027;75;21490;-76
2022/02/25 00:18:41;;;;;;;3.02;0.90;;;4.80;99.90;;;;;;1861747;76;21142;-75
2022/02/25 00:21:09;;;;;;;2.37;0.78;;;4.80;99.90;;;;;;1861721;75;21149;-75
2022/02/25 00:23:38;;;;;;;1.17;0.50;;;4.70;99.90;;;;;;1862657;75;21056;-76
2022/02/25 00:26:07;;;;;;;2.70;0.70;;;4.70;99.90;;;;;;1862696;75;21465;-75
2022/02/25 00:28:34;;;;;;;1.10;0.50;;;4.70;99.90;;;;;;1863310;76;21088;-76
2022/02/25 00:31:01;;;;;;;1.65;0.70;;;4.70;99.90;;;;;;1861202;75;21181;-75
2022/02/25 00:33:29;;;;;;;2.37;0.70;;;4.70;99.90;;;;;;1863095;76;21154;-75
2022/02/25 00:35:56;;;;;;;3.90;0.60;;;4.60;99.90;;;;;;1862012;76;21526;-75
2022/02/25 00:38:25;;;;;;;0.80;0.50;;;4.60;99.90;;;;;;1862407;75;21504;-75
2022/02/25 00:40:52;;;;;;;2.75;0.53;;;4.70;99.90;;;;;;1862427;75;21138;-73
2022/02/25 00:43:20;;;;;;;0.88;0.30;;;4.60;99.90;;;;;;1863227;75;21073;-74
2022/02/25 00:45:47;;;;;;;2.50;0.57;;;4.60;99.90;;;;;;1862738;75;21480;-74
2022/02/25 00:48:14;;;;;;;1.55;0.62;;;4.60;99.90;;;;;;1856467;75;21531;-74
2022/02/25 00:50:42;;;;;;;1.67;0.70;;;4.50;99.90;;;;;;1864058;77;21153;-75
2022/02/25 00:53:09;;;;;;;2.15;0.90;;;4.50;99.90;;;;;;1862323;75;21083;-73
2022/02/25 00:55:36;;;;;;;3.33;0.90;;;4.50;99.90;;;;;;1860909;77;21469;-74
2022/02/25 00:58:04;;;;;;;1.75;0.78;;;4.50;99.90;;;;;;1862669;76;21053;-73
2022/02/25 01:00:31;;;;;;;3.05;0.65;;;4.50;99.90;;;;;;1839763;76;21119;-73
2022/02/25 01:02:58;;;;;;;1.70;0.82;;;4.50;99.90;;;;;;1862923;75;21087;-73
2022/02/25 01:05:26;;;;;;;4.92;1.20;;;4.50;99.90;;;;;;1863614;77;21118;-73
2022/02/25 01:07:54;;;;;;;2.30;0.90;;;4.60;99.90;;;;;;1861014;75;21149;-75
2022/02/25 01:10:22;;;;;;;3.98;0.70;;;4.50;99.90;;;;;;1861606;76;21081;-75
2022/02/25 01:12:49;;;;;;;2.95;0.85;;;4.60;99.90;;;;;;1863556;77;21072;-74
2022/02/25 01:15:17;;;;;;;2.22;0.98;;;4.50;99.90;;;;;;1860787;76;21646;-75
2022/02/25 01:17:44;;;;;;;2.67;1.07;;;4.50;99.90;;;;;;1862378;75;21522;-75
2022/02/25 01:20:11;;;;;;;5.50;1.07;;;4.40;99.90;;;;;;1862793;75;21107;-75
2022/02/25 01:22:40;;;;;;;3.47;0.80;;;4.40;99.90;;;;;;1863506;77;21118;-74
2022/02/25 01:25:08;;;;;;;2.35;0.90;;;4.30;99.90;;;;;;1862166;75;21191;-75
2022/02/25 01:27:35;;;;;;;2.95;0.80;;;4.30;99.90;;;;;;1863543;77;21044;-75
2022/02/25 01:30:05;;;;;;;11.70;1.12;;;4.30;99.90;;;;;;1863477;75;21457;-75
2022/02/25 01:32:32;;;;;;;3.25;1.00;;;4.30;99.90;;;;;;1863650;76;21147;-76
2022/02/25 01:34:59;;;;;;;4.05;1.25;;;4.20;99.90;;;;;;1863634;77;21024;-75
2022/02/25 01:37:27;;;;;;;2.67;0.90;;;4.10;99.90;;;;;;1862163;76;21025;-75
2022/02/25 01:39:54;;;;;;;1.40;0.68;;;4.10;99.90;;;;;;1862566;77;21026;-74
2022/02/25 01:42:21;;;;;;;3.98;0.82;;;4.00;99.90;;;;;;1875144;76;21190;-75
2022/02/25 01:44:49;;;;;;;1.72;1.00;;;4.00;99.90;;;;;;1871069;74;21057;-75
2022/02/25 01:47:16;;;;;;;1.42;0.62;;;3.90;99.90;;;;;;1857635;76;21138;-75
2022/02/25 01:49:45;;;;;;;1.35;0.70;;;3.90;99.90;;;;;;1862247;75;21082;-75
2022/02/25 01:52:20;;;;;;;2.58;0.90;;;3.90;99.90;;;;;;1863497;75;21197;-74
2022/02/25 01:54:49;;;;;;;0.88;0.75;;;3.90;99.90;;;;;;1863422;77;21053;-74
2022/02/25 01:57:17;;;;;;;3.33;1.17;;;3.90;99.90;;;;;;1860713;75;21421;-75
2022/02/25 01:59:44;;;;;;;3.60;1.15;;;3.90;99.90;;;;;;1858613;75;21465;-76
2022/02/25 02:02:11;;;;;;;5.47;1.10;;;3.80;99.90;;;;;;1863205;75;21165;-73
2022/02/25 02:04:39;;;;;;;7.83;0.80;;;3.80;99.90;;;;;;1863820;77;21114;-75
2022/02/25 02:07:08;;;;;;;4.25;1.27;;;3.80;99.90;;;;;;1863540;75;21146;-75
2022/02/25 02:09:35;;;;;;;1.70;0.80;;;3.70;99.90;;;;;;1863300;75;21096;-75
2022/02/25 02:12:05;;;;;;;2.65;1.07;;;3.70;99.90;;;;;;1862922;75;21558;-74
2022/02/25 02:14:32;;;;;;;2.42;1.02;;;3.70;99.90;;;;;;1863372;75;21189;-75
2022/02/25 02:16:59;;;;;;;2.98;1.02;;;3.60;99.90;;;;;;1863545;75;21072;-75
2022/02/25 02:19:28;;;;;;;1.75;0.70;;;3.60;99.90;;;;;;1857950;75;21075;-74
2022/02/25 02:21:57;;;;;;;1.30;0.80;;;3.50;99.90;;;;;;1860385;75;21060;-75
2022/02/25 02:24:24;;;;;;;2.62;0.85;;;3.40;99.90;;;;;;1858969;76;21082;-76
2022/02/25 02:26:52;;;;;;;2.35;0.70;;;3.40;99.90;;;;;;1864599;76;21067;-75
2022/02/25 02:29:19;;;;;;;2.67;0.83;;;3.40;99.90;;;;;;1863623;75;21079;-75
2022/02/25 02:31:47;;;;;;;2.40;0.85;;;3.40;99.90;;;;;;1863598;75;21052;-76
2022/02/25 02:34:16;;;;;;;1.75;0.60;;;3.40;99.90;;;;;;1864008;75;21080;-74
2022/02/25 02:36:43;;;;;;;1.47;0.65;;;3.40;99.90;;;;;;1863326;75;21073;-75
2022/02/25 02:39:11;;;;;;;2.25;0.72;;;3.20;99.90;;;;;;1863312;75;21075;-74
2022/02/25 02:41:39;;;;;;;3.33;0.80;;;3.20;99.90;;;;;;1862595;76;21457;-75
2022/02/25 02:44:06;;;;;;;4.40;0.85;;;3.20;99.90;;;;;;1862093;75;21150;-75
2022/02/25 02:46:34;;;;;;;2.90;0.85;;;3.20;99.90;;;;;;1876250;73;21153;-74
2022/02/25 02:49:01;;;;;;;3.42;1.00;;;3.20;99.90;;;;;;1864003;77;21048;-75
2022/02/25 02:51:29;;;;;;;4.75;0.90;;;3.20;99.90;;;;;;1863014;75;21084;-75
2022/02/25 02:53:57;;;;;;;1.45;0.68;;;3.10;99.90;;;;;;1863771;75;21080;-74
2022/02/25 02:56:24;;;;;;;3.45;0.80;;;3.10;99.90;;;;;;1862312;75;21429;-74
2022/02/25 02:58:55;;;;;;;10.90;1.20;;;3.00;99.90;;;;;;1860475;75;21140;-75
2022/02/25 03:01:21;;;;;;;4.40;0.78;;;3.00;99.90;;;;;;1853676;75;21219;-74
2022/02/25 03:03:48;;;;;;;2.90;0.70;;;2.90;99.90;;;;;;1863680;75;21150;-75
2022/02/25 03:06:17;;;;;;;1.30;0.72;;;2.90;99.90;;;;;;1841436;76;21072;-75
2022/02/25 03:08:46;;;;;;;2.45;0.80;;;2.80;99.90;;;;;;1863453;76;21506;-75
2022/02/25 03:11:13;;;;;;;3.62;0.98;;;2.80;99.90;;;;;;1863634;77;21064;-75
2022/02/25 03:13:41;;;;;;;2.80;0.70;;;2.80;99.90;;;;;;1863555;76;21138;-73
2022/02/25 03:16:08;;;;;;;1.92;0.90;;;2.80;99.90;;;;;;1862852;76;21202;-75
2022/02/25 03:18:35;;;;;;;8.53;1.02;;;2.80;99.90;;;;;;1841503;76;21541;-74
2022/02/25 03:21:03;;;;;;;14.00;1.05;;;2.80;99.90;;;;;;1863743;76;21142;-75
2022/02/25 03:23:30;;;;;;;3.22;0.80;;;2.70;99.90;;;;;;1862028;75;21080;-74
2022/02/25 03:25:57;;;;;;;3.90;0.72;;;2.60;99.90;;;;;;1862843;75;21079;-75
2022/02/25 03:28:25;;;;;;;3.02;0.90;;;2.60;99.90;;;;;;1862912;75;21092;-74
2022/02/25 03:30:52;;;;;;;7.33;0.72;;;2.60;99.90;;;;;;1863473;76;21089;-74
2022/02/25 03:33:19;;;;;;;2.22;0.80;;;2.50;99.90;;;;;;1859135;75;21096;-75
2022/02/25 03:35:47;;;;;;;3.02;1.05;;;2.40;99.90;;;;;;1862014;76;21083;-75
2022/02/25 03:38:14;;;;;;;3.92;1.15;;;2.40;99.90;;;;;;1861654;75;21146;-75
2022/02/25 03:40:42;;;;;;;3.37;1.15;;;2.30;99.90;;;;;;1860685;76;21131;-75
2022/02/25 03:43:09;;;;;;;6.55;1.37;;;2.30;99.90;;;;;;1862375;75;21484;-74
2022/02/25 03:45:36;;;;;;;4.08;1.00;;;2.20;99.90;;;;;;1863531;77;21126;-75
2022/02/25 03:48:04;;;;;;;2.67;0.90;;;2.10;99.90;;;;;;1863098;76;21095;-75
2022/02/25 03:50:31;;;;;;;1.37;0.80;;;2.10;99.90;;;;;;1863477;77;21057;-74
2022/02/25 03:52:59;;;;;;;4.58;1.02;;;2.00;99.90;;;;;;1862799;76;21146;-74
2022/02/25 03:55:26;;;;;;;2.95;1.12;;;2.10;99.90;;;;;;1861357;75;21080;-75
2022/02/25 03:57:53;;;;;;;1.32;0.88;;;2.00;99.90;;;;;;1863297;75;21028;-74
2022/02/25 04:00:21;;;;;;;3.83;1.35;;;2.10;99.90;;;;;;1860165;75;21137;-74
2022/02/25 04:02:48;;;;;;;1.82;1.00;;;2.00;99.90;;;;;;1863609;77;21513;-74
2022/02/25 04:05:15;;;;;;;2.62;1.02;;;2.00;99.90;;;;;;1861075;76;21091;-74
2022/02/25 04:07:43;;;;;;;4.15;0.98;;;2.00;99.90;;;;;;1863215;75;21227;-74
2022/02/25 04:10:12;;;;;;;11.33;1.45;;;2.00;99.90;;;;;;1863201;76;21088;-74
2022/02/25 04:12:40;;;;;;;4.60;1.05;;;1.90;99.90;;;;;;1861058;75;21515;-74
2022/02/25 04:15:08;;;;;;;4.20;0.80;;;1.80;99.90;;;;;;1863507;75;21150;-74
2022/02/25 04:17:35;;;;;;;3.95;0.80;;;1.80;99.90;;;;;;1863430;75;21083;-74
2022/02/25 04:20:03;;;;;;;5.42;0.90;;;1.70;99.90;;;;;;1863669;77;21448;-74
2022/02/25 04:22:31;;;;;;;5.42;1.05;;;1.70;99.90;;;;;;1863125;75;21176;-75
2022/02/25 04:24:58;;;;;;;9.85;1.30;;;1.60;99.90;;;;;;1863065;76;21099;-74
2022/02/25 04:27:25;;;;;;;4.20;0.85;;;1.60;99.90;;;;;;1863758;75;21138;-74
2022/02/25 04:29:53;;;;;;;3.60;0.93;;;1.50;99.90;;;;;;1863275;75;21198;-74
2022/02/25 04:32:20;;;;;;;2.20;0.88;;;1.60;99.90;;;;;;1861680;75;21490;-75
2022/02/25 04:34:48;;;;;;;1.60;0.80;;;1.60;99.90;;;;;;1863562;76;21519;-75
2022/02/25 04:37:15;;;;;;;5.58;1.00;;;1.60;99.90;;;;;;1860545;75;21523;-75
2022/02/25 04:39:43;;;;;;;3.65;0.80;;;1.70;99.90;;;;;;1863178;76;21601;-74
2022/02/25 04:42:10;;;;;;;4.30;1.42;;;1.70;99.90;;;;;;1863549;77;21094;-74
2022/02/25 04:44:37;;;;;;;5.17;0.93;;;1.70;99.90;;;;;;1863550;77;21025;-74
2022/02/25 04:47:07;;;;;;;4.40;1.05;;;1.70;99.90;;;;;;1862930;75;21084;-75
2022/02/25 04:49:34;;;;;;;3.80;1.12;;;1.80;99.90;;;;;;1860274;75;21096;-74
2022/02/25 04:52:02;;;;;;;3.67;0.85;;;1.90;99.90;;;;;;1862056;75;21515;-74
2022/02/25 04:54:38;;;;;;;4.15;1.30;;;2.00;99.90;;;;;;1862502;76;21150;-73
2022/02/25 04:57:05;;;;;;;4.12;1.00;;;1.90;99.90;;;;;;1862846;75;21503;-74
2022/02/25 04:59:32;;;;;;;2.77;0.80;;;2.00;99.90;;;;;;1863675;75;21131;-74
2022/02/25 05:02:00;;;;;;;6.10;1.30;;;2.00;99.90;;;;;;1862131;76;21085;-74
2022/02/25 05:04:27;;;;;;;2.92;1.17;;;2.00;99.90;;;;;;1863155;75;21164;-74
2022/02/25 05:06:54;;;;;;;3.20;0.80;;;2.00;99.90;;;;;;1861636;76;21061;-73
2022/02/25 05:09:21;;;;;;;7.30;1.55;;;2.00;99.90;;;;;;1862576;75;21476;-73
2022/02/25 05:11:49;;;;;;;7.72;1.72;;;1.90;99.90;;;;;;1863027;76;21075;-73
2022/02/25 05:22:33;;;;;;;5.92;1.32;;;2.00;99.90;;;;;;1891756;75;21121;-75
2022/02/25 05:25:00;;;;;;;3.45;1.15;;;2.00;99.90;;;;;;1869876;76;21041;-74
2022/02/25 05:27:28;;;;;;;3.65;1.40;;;1.90;99.90;;;;;;1863664;75;21126;-74
2022/02/25 05:29:55;;;;;;;4.42;1.32;;;1.90;99.90;;;;;;1862360;75;21152;-75
2022/02/25 05:32:23;;;;;;;4.72;1.30;;;2.00;99.90;;;;;;1861202;76;21141;-74
2022/02/25 05:34:50;;;;;;;5.40;1.22;;;2.00;99.90;;;;;;1863708;76;21154;-74
2022/02/25 05:37:18;;;;;;;4.22;1.27;;;2.10;99.90;;;;;;1842696;76;21190;-73
2022/02/25 05:39:45;;;;;;;3.72;1.00;;;2.10;99.90;;;;;;1861897;75;21095;-75
2022/02/25 05:42:12;;;;;;;4.92;1.25;;;2.20;99.90;;;;;;1863082;75;21208;-74
2022/02/25 05:44:39;;;;;;;3.02;0.95;;;2.20;99.90;;;;;;1862429;76;21162;-74
2022/02/25 05:47:07;;;;;;;8.53;1.32;;;2.20;99.90;;;;;;1863806;76;21085;-72
2022/02/25 05:49:34;;;;;;;4.28;1.45;;;2.20;99.90;;;;;;1863730;77;21405;-72
2022/02/25 05:52:02;;;;;;;3.50;1.00;;;2.20;99.90;;;;;;1863740;77;21102;-71
2022/02/25 05:54:29;;;;;;;5.95;1.50;;;2.10;99.90;;;;;;1862560;75;21031;-72
2022/02/25 05:56:56;;;;;;;4.42;1.30;;;2.10;99.90;;;;;;1863430;76;21118;-71
2022/02/25 05:59:24;;;;;;;8.08;1.50;;;2.20;99.90;;;;;;1862017;76;21103;-72
2022/02/25 06:01:52;;;;;;;4.97;1.12;;;2.20;99.90;;;;;;1861266;75;21073;-72
2022/02/25 06:04:20;;;;;;;4.42;1.15;;;2.30;99.90;;;;;;1859114;75;21146;-72
2022/02/25 06:06:47;;;;;;;4.85;1.37;;;2.40;99.90;;;;;;1859913;76;21081;-71
2022/02/25 06:09:14;;;;;;;2.02;0.85;;;2.50;99.90;;;;;;1860237;75;21138;-71
2022/02/25 06:11:42;;;;;;;6.65;1.00;;;2.50;99.90;;;;;;1862280;76;21575;-72
2022/02/25 06:14:09;;;;;;;9.65;1.20;;;2.50;99.90;;;;;;1863396;76;21503;-72
2022/02/25 06:16:36;;;;;;;4.58;1.00;;;2.60;99.90;;;;;;1863619;77;21207;-71
2022/02/25 06:19:04;;;;;;;2.55;1.05;;;2.60;99.90;;;;;;1862628;75;21083;-74
2022/02/25 06:21:31;;;;;;;4.40;1.10;;;2.60;99.90;;;;;;1861179;75;21084;-74
2022/02/25 06:23:58;;;;;;;7.70;1.30;;;2.60;99.90;;;;;;1863731;77;21441;-75
2022/02/25 06:26:25;;;;;;;5.53;1.52;;;2.50;99.90;;;;;;1862338;75;21150;-74
2022/02/25 06:28:53;;;;;;;3.35;1.10;;;2.60;99.90;;;;;;1861943;76;21230;-73
2022/02/25 06:31:20;;;;;;;4.12;1.77;;;2.50;99.90;;;;;;1862297;75;21064;-73
2022/02/25 06:33:47;;;;;;;4.70;2.10;;;2.40;99.90;;;;;;1860378;75;21061;-74
2022/02/25 06:36:15;;;;;;;8.73;1.50;;;2.40;99.90;;;;;;1863146;75;21084;-74
2022/02/25 06:38:42;;;;;;;4.80;1.90;;;2.30;99.90;;;;;;1857891;75;21247;-73
2022/02/25 06:41:09;;;;;;;7.22;1.50;;;2.20;99.90;;;;;;1863430;76;21032;-73
2022/02/25 06:43:37;;;;;;;6.05;1.65;;;2.20;99.90;;;;;;1862724;76;21452;-74
2022/02/25 06:46:04;;;;;;;5.62;1.20;;;2.20;99.90;;;;;;1861342;76;21628;-75
2022/02/25 06:48:32;;;;;;;5.53;1.67;;;2.30;99.90;;;;;;1858155;75;21164;-72
2022/02/25 06:50:59;;;;;;;8.70;1.27;;;2.20;99.90;;;;;;1863085;76;21064;-73
2022/02/25 06:53:26;;;;;;;4.78;1.42;;;2.20;99.90;;;;;;1863223;76;21149;-74
2022/02/25 06:55:54;;;;;;;4.50;1.25;;;2.20;99.90;;;;;;1861118;75;21127;-74
2022/02/25 06:58:21;;;;;;;5.60;1.75;;;2.20;99.90;;;;;;1863551;77;21440;-74
2022/02/25 07:00:48;;;;;;;5.08;1.22;;;2.10;99.90;;;;;;1863522;76;21080;-74
2022/02/25 07:03:16;;;;;;;5.00;1.52;;;2.10;99.90;;;;;;1862130;75;21068;-75
2022/02/25 07:05:43;;;;;;;3.08;1.15;;;2.10;99.90;;;;;;1861727;76;21108;-75
2022/02/25 07:08:12;;;;;;;6.65;1.80;;;2.10;99.90;;;;;;1861810;75;21091;-75
2022/02/25 07:10:39;;;;;;;3.10;1.27;;;2.10;99.90;;;;;;1863171;77;21052;-78
2022/02/25 07:13:08;;;;;;;6.12;1.77;;;2.20;99.90;;;;;;1863634;77;21202;-76
2022/02/25 07:15:35;;;;;;;8.38;1.50;;;2.10;99.90;;;;;;1848181;76;21148;-75
2022/02/25 07:18:03;;;;;;;3.47;1.57;;;2.20;99.90;;;;;;1894283;76;21108;-74
2022/02/25 07:20:30;;;;;;;4.42;1.30;;;2.30;99.90;;;;;;1880852;75;21127;-74
2022/02/25 07:22:57;;;;;;;4.83;1.62;;;2.40;99.90;;;;;;1862733;77;21158;-69
2022/02/25 07:25:25;;;;;;;9.38;1.77;;;2.30;99.90;;;;;;1862650;76;21142;-75
2022/02/25 07:27:52;;;;;;;5.15;2.12;;;2.50;99.90;;;;;;1863471;76;21145;-73
2022/02/25 07:30:20;;;;;;;10.95;2.62;;;2.60;99.90;;;;;;1862777;75;21444;-73
2022/02/25 07:32:48;;;;;;;4.50;1.55;;;2.50;99.90;;;;;;1863493;75;21084;-74
2022/02/25 07:35:15;;;;;;;8.23;1.60;;;2.60;99.90;;;;;;1861953;76;21452;-76
2022/02/25 07:37:42;;;;;;;4.30;1.50;;;2.60;99.90;;;;;;1861716;76;21087;-77
2022/02/25 07:40:12;;;;;;;8.93;1.82;;;2.80;99.90;;;;;;1863532;77;21420;-78
2022/02/25 07:42:39;;;;;;;7.37;1.80;;;2.80;99.90;;;;;;1862352;75;21087;-77
2022/02/25 07:45:08;;;;;;;5.87;1.82;;;3.00;99.90;;;;;;1863612;75;21081;-78
2022/02/25 07:47:37;;;;;;;7.92;1.80;;;3.10;99.90;;;;;;1864687;75;21127;-76
2022/02/25 07:50:07;;;;;;;5.37;1.55;;;3.20;99.90;;;;;;1866029;76;21081;-76
2022/02/25 07:52:34;;;;;;;3.43;1.40;;;3.30;99.90;;;;;;1862151;75;21181;-76
2022/02/25 07:55:02;;;;;;;9.93;1.55;;;3.30;99.90;;;;;;1861289;75;21743;-75
2022/02/25 07:57:30;;;;;;;7.10;1.75;;;3.50;99.90;;;;;;1863405;76;21069;-79
2022/02/25 07:59:57;;;;;;;6.12;1.67;;;3.60;99.90;;;;;;1863296;76;21091;-76
2022/02/25 08:02:26;;;;;;;6.05;1.77;;;3.60;99.90;;;;;;1863695;77;21052;-75
2022/02/25 08:04:53;;;;;;;13.38;1.82;;;3.70;99.90;;;;;;1874413;75;21126;-76
2022/02/25 08:07:21;;;;;;;5.03;1.50;;;3.80;99.90;;;;;;1862886;76;21101;-75
2022/02/25 08:09:49;;;;;;;6.20;1.65;;;4.00;99.90;;;;;;1864664;77;21025;-75
2022/02/25 08:12:16;;;;;;;5.28;1.27;;;4.10;99.90;;;;;;1862673;75;21153;-75
2022/02/25 08:14:44;;;;;;;14.00;1.67;;;4.20;99.90;;;;;;1863309;76;21076;-75
2022/02/25 08:17:11;;;;;;;11.80;2.15;;;4.30;99.90;;;;;;1863390;75;21157;-76
2022/02/25 08:19:38;;;;;;;6.67;1.40;;;4.40;99.90;;;;;;1863660;77;21040;-78
2022/02/25 08:25:27;;;;;;;6.37;1.65;;;4.60;99.90;;;;;;1863505;77;21131;-75
2022/02/25 08:27:55;;;;;;;13.32;1.70;;;4.80;99.90;;;;;;1861769;75;21076;-77
2022/02/25 08:30:22;;;;;;;10.05;1.32;;;4.80;99.90;;;;;;1861153;76;21076;-74
2022/02/25 08:32:50;;;;;;;3.83;1.30;;;4.90;99.90;;;;;;1863630;77;21028;-75
2022/02/25 08:35:18;;;;;;;14.33;1.80;;;5.10;99.90;;;;;;1863716;77;21114;-75
2022/02/25 08:37:46;;;;;;;6.58;1.52;;;5.20;99.90;;;;;;1861226;75;21141;-75
2022/02/25 08:40:14;;;;;;;10.53;1.57;;;5.40;99.90;;;;;;1861624;75;21571;-75
2022/02/25 08:42:41;;;;;;;7.17;1.55;;;5.50;99.90;;;;;;1863668;76;21146;-76
2022/02/25 08:45:10;;;;;;;8.65;1.52;;;5.70;99.90;;;;;;1864168;75;21057;-75
2022/02/25 08:47:37;;;;;;;9.00;1.77;;;5.80;99.90;;;;;;1863813;77;21033;-74
2022/02/25 08:50:05;;;;;;;6.58;1.37;;;5.60;99.90;;;;;;1863659;75;21091;-76
2022/02/25 08:52:32;;;;;;;7.05;1.32;;;5.70;99.90;;;;;;1863024;76;21488;-76
2022/02/25 08:54:59;;;;;;;6.40;1.50;;;5.90;99.90;;;;;;1861258;75;21085;-80
2022/02/25 08:57:27;;;;;;;8.95;1.87;;;5.90;99.90;;;;;;1863811;76;21076;-78
2022/02/25 08:59:56;;;;;;;5.85;1.55;;;5.90;99.90;;;;;;1860617;75;21149;-73
2022/02/25 09:02:23;;;;;;;6.15;1.50;;;5.90;99.90;;;;;;1861748;75;21153;-78
2022/02/25 09:04:50;;;;;;;4.67;1.17;;;6.00;99.90;;;;;;1862523;75;21491;-73
2022/02/25 09:07:18;;;;;;;9.48;1.70;;;6.10;99.90;;;;;;1862032;75;21084;-73
2022/02/25 09:09:45;;;;;;;12.95;2.80;;;6.10;99.90;;;;;;1863831;77;21044;-71
2022/02/25 09:12:12;;;;;;;6.37;1.45;;;6.20;99.90;;;;;;1862100;75;21484;-76
2022/02/25 09:14:40;;;;;;;5.33;1.30;;;6.50;99.90;;;;;;1863296;75;21146;-79
2022/02/25 09:17:10;;;;;;;8.13;1.70;;;6.70;99.90;;;;;;1859895;75;21080;-77
2022/02/25 09:19:39;;;;;;;9.73;1.65;;;6.70;99.90;;;;;;1863086;76;21080;-76
2022/02/25 09:22:06;;;;;;;6.17;1.85;;;6.70;99.90;;;;;;1861321;75;21065;-75
2022/02/25 09:24:34;;;;;;;5.75;1.55;;;6.90;99.90;;;;;;1859342;76;21288;-78
2022/02/25 09:27:01;;;;;;;5.20;1.35;;;6.90;99.90;;;;;;1860359;76;21083;-75
2022/02/25 09:29:29;;;;;;;9.78;1.55;;;6.70;99.90;;;;;;1863136;75;21445;-76
2022/02/25 09:31:56;;;;;;;5.08;1.62;;;6.60;99.90;;;;;;1861398;75;21083;-78
2022/02/25 09:34:23;;;;;;;8.38;1.40;;;6.80;99.90;;;;;;1859953;75;21492;-78
2022/02/25 09:36:51;;;;;;;7.45;1.42;;;6.90;99.90;;;;;;1863583;75;21203;-79
2022/02/25 09:39:19;;;;;;;7.08;1.60;;;6.90;99.90;;;;;;1861713;75;21092;-77
2022/02/25 09:42:09;;;;;;;4.17;1.30;;;6.70;99.90;;;;;;1861456;75;21491;-79
2022/02/25 09:44:36;;;;;;;3.83;1.20;;;6.80;99.90;;;;;;1812112;77;21178;-81
2022/02/25 09:47:04;;;;;;;6.45;1.50;;;7.20;99.90;;;;;;1847283;76;21090;-79
2022/02/25 09:49:31;;;;;;;6.60;1.72;;;7.30;99.90;;;;;;1843785;77;21164;-79
2022/02/25 09:51:58;;;;;;;10.50;1.37;;;7.50;99.90;;;;;;1854184;76;21174;-79
2022/02/25 09:54:26;;;;;;;3.70;1.20;;;7.70;99.90;;;;;;1845477;77;21242;-80
2022/02/25 09:56:53;;;;;;;6.42;1.32;;;7.90;99.90;;;;;;1848150;76;21478;-79
2022/02/25 09:59:22;;;;;;;4.40;1.20;;;7.50;99.90;;;;;;1846687;76;21168;-78
2022/02/25 10:01:49;;;;;;;16.52;2.00;;;7.50;99.90;;;;;;1805872;79;21581;-76
2022/02/25 10:04:26;;;;;;;3.85;1.20;;;7.50;99.90;;;;;;1811251;79;21440;-79
2022/02/25 10:06:51;;;;;;;4.55;1.15;;;7.80;99.90;;;;;;1885539;75;21095;-80
2022/02/25 10:09:32;;;;;;;3.50;1.10;;;7.90;99.90;;;;;;1886269;75;21192;-81
2022/02/25 10:12:09;;;;;;;9.55;1.37;;;7.60;99.90;;;;;;1816652;78;21122;-78
2022/02/25 10:14:40;;;;;;;6.22;2.08;;;8.00;99.90;;;;;;1820134;78;21110;-77
2022/02/25 10:17:24;;;;;;;5.97;1.92;;;8.50;99.90;;;;;;1890672;75;21078;-78
2022/02/25 10:19:54;;;;;;;5.62;1.40;;;8.40;99.90;;;;;;1888432;75;21520;-78
2022/02/25 10:22:38;;;;;;;4.55;1.27;;;7.90;99.90;;;;;;1885192;75;21142;-81
2022/02/25 10:25:11;;;;;;;5.85;1.30;;;7.80;99.90;;;;;;1882500;75;21058;-81
2022/02/25 10:27:40;;;;;;;5.05;1.10;;;8.00;99.90;;;;;;1884755;75;21155;-82
2022/02/25 10:30:12;;;;;;;3.08;1.10;;;7.90;99.90;;;;;;1886484;75;21065;-79
2022/02/25 10:32:42;;;;;;;8.13;1.37;;;8.40;99.90;;;;;;1883479;76;21086;-81
2022/02/25 10:35:35;;;;;;;5.70;1.52;;;8.40;99.90;;;;;;1879724;75;21159;-79
2022/02/25 10:38:21;;;;;;;3.92;1.17;;;8.60;99.90;;;;;;1887065;75;21101;-83
2022/02/25 10:40:50;;;;;;;4.85;1.40;;;8.80;99.90;;;;;;1876168;76;21087;-82
2022/02/25 10:43:23;;;;;;;4.67;1.02;;;8.80;99.90;;;;;;1885193;75;21063;-81
2022/02/25 10:45:57;;;;;;;6.95;1.45;;;8.80;99.90;;;;;;1884842;75;21148;-80
2022/02/25 10:48:29;;;;;;;4.97;1.75;;;8.60;99.90;;;;;;1884387;76;21154;-81
2022/02/25 10:50:58;;;;;;;6.20;1.25;;;8.60;99.90;;;;;;1884531;75;21136;-79
2022/02/25 10:53:30;;;;;;;10.72;1.72;;;8.40;99.90;;;;;;1809996;77;21224;-79
2022/02/25 10:56:14;;;;;;;7.53;1.45;;;8.20;99.90;;;;;;1814283;77;21565;-80
2022/02/25 10:58:49;;;;;;;8.98;1.67;;;7.70;99.90;;;;;;1812097;78;21460;-78
2022/02/25 11:01:19;;;;;;;12.07;1.30;;;8.20;99.90;;;;;;1818080;78;21439;-81
2022/02/25 11:04:00;;;;;;;4.30;1.00;;;8.40;99.90;;;;;;1886890;75;21078;-79
2022/02/25 11:06:30;;;;;;;6.70;1.42;;;8.50;99.90;;;;;;1884896;76;21077;-79
2022/02/25 11:08:57;;;;;;;3.95;1.00;;;8.90;99.90;;;;;;1884353;75;21097;-80
2022/02/25 11:11:24;;;;;;;5.15;0.98;;;8.20;99.90;;;;;;1883367;75;21050;-80
2022/02/25 11:14:00;;;;;;;4.55;1.07;;;8.20;99.90;;;;;;1887177;75;21159;-80
2022/02/25 11:16:27;;;;;;;5.85;1.40;;;8.90;99.90;;;;;;1883587;75;21175;-78
2022/02/25 11:18:54;;;;;;;5.95;1.47;;;8.70;99.90;;;;;;1882932;76;21200;-78
2022/02/25 11:21:22;;;;;;;9.45;1.47;;;8.50;99.90;;;;;;1887243;75;21073;-78
2022/02/25 11:23:49;;;;;;;5.50;1.42;;;8.50;99.90;;;;;;1883638;75;21245;-78
2022/02/25 11:26:19;;;;;;;6.47;1.20;;;8.70;99.90;;;;;;1883161;76;21231;-77
2022/02/25 11:28:46;;;;;;;7.40;1.35;;;9.00;99.90;;;;;;1886162;75;21115;-76
2022/02/25 11:31:32;;;;;;;11.33;1.35;;;8.60;99.90;;;;;;1855258;75;21090;-78
2022/02/25 11:34:00;;;;;;;4.00;1.35;;;8.80;99.90;;;;;;1884057;76;21046;-80
2022/02/25 11:36:46;;;;;;;3.33;1.15;;;8.90;99.90;;;;;;1885795;75;21528;-77
2022/02/25 11:39:20;;;;;;;9.88;1.82;;;9.30;99.90;;;;;;1884394;74;21449;-76
2022/02/25 11:41:53;;;;;;;8.00;1.42;;;9.00;99.90;;;;;;1883785;76;21058;-80
2022/02/25 11:44:20;;;;;;;3.30;1.40;;;8.60;99.90;;;;;;1884853;75;21429;-77
2022/02/25 11:46:49;;;;;;;4.72;1.30;;;9.20;99.90;;;;;;1884351;75;21480;-80
2022/02/25 11:49:25;;;;;;;6.45;1.05;;;10.00;99.90;;;;;;1885486;74;21053;-78
2022/02/25 11:51:56;;;;;;;5.62;0.98;;;9.50;99.90;;;;;;1886765;75;21160;-78
2022/02/25 11:54:40;;;;;;;3.42;0.80;;;9.50;99.90;;;;;;1884719;76;21431;-77
2022/02/25 11:57:05;;;;;;;4.80;1.15;;;8.80;99.90;;;;;;1881537;75;21130;-76
2022/02/25 11:59:35;;;;;;;6.30;1.27;;;9.50;99.90;;;;;;1883798;75;21448;-76
2022/02/25 12:02:05;;;;;;;6.80;1.10;;;8.70;99.90;;;;;;1885672;75;21077;-77
2022/02/25 12:04:33;;;;;;;5.37;1.20;;;8.30;99.90;;;;;;1887210;75;21046;-76
2022/02/25 12:07:10;;;;;;;7.72;1.50;;;8.20;99.90;;;;;;1883654;76;21148;-74
2022/02/25 12:09:52;;;;;;;4.25;1.42;;;8.20;99.90;;;;;;1818270;77;21552;-73
2022/02/25 12:12:26;;;;;;;4.50;1.42;;;8.30;99.90;;;;;;1846154;77;21147;-74
2022/02/25 12:15:19;;;;;;;6.80;1.25;;;8.40;99.90;;;;;;1885885;75;21151;-75
2022/02/25 12:18:04;;;;;;;2.62;1.12;;;8.20;99.90;;;;;;1889155;75;21095;-77
2022/02/25 12:20:45;;;;;;;3.92;1.50;;;8.40;99.90;;;;;;1888720;74;21451;-77
2022/02/25 12:23:24;;;;;;;7.40;1.27;;;8.10;99.90;;;;;;1889045;75;21130;-78
2022/02/25 12:26:05;;;;;;;5.80;1.10;;;8.10;99.90;;;;;;1813199;77;21091;-79
2022/02/25 12:28:35;;;;;;;9.08;1.82;;;8.20;99.90;;;;;;1811016;77;21390;-79
2022/02/25 12:31:14;;;;;;;6.83;0.98;;;8.60;99.90;;;;;;1818058;78;21102;-80
2022/02/25 12:33:47;;;;;;;3.98;1.30;;;8.70;99.90;;;;;;1885451;75;21266;-79
2022/02/25 12:36:29;;;;;;;4.12;1.12;;;8.30;99.90;;;;;;1885077;75;21074;-74
2022/02/25 12:39:01;;;;;;;7.08;1.25;;;8.00;99.90;;;;;;1887152;75;21187;-74
2022/02/25 12:41:34;;;;;;;5.67;1.10;;;7.90;99.90;;;;;;1887461;75;21453;-74
2022/02/25 12:44:04;;;;;;;6.85;1.67;;;8.10;99.90;;;;;;1879222;76;21082;-74
2022/02/25 12:46:36;;;;;;;4.72;1.65;;;8.10;99.90;;;;;;1819069;77;21168;-75
2022/02/25 12:49:04;;;;;;;2.92;0.95;;;7.90;99.90;;;;;;1791140;79;21168;-74
2022/02/25 12:51:31;;;;;;;7.62;1.42;;;7.90;99.90;;;;;;1882611;76;21490;-74
2022/02/25 12:54:03;;;;;;;6.05;1.25;;;8.00;99.90;;;;;;1885252;75;21037;-76
2022/02/25 12:56:36;;;;;;;3.47;1.10;;;8.90;99.90;;;;;;1808511;78;21067;-80
2022/02/25 12:59:03;;;;;;;;;;;9.30;99.90;;;;;;1816304;78;21089;-78
2022/02/25 13:01:30;;;;;;;3.00;0.98;;;9.00;99.90;;;;;;1840385;76;20130;-74
2022/02/25 13:04:07;;;;;;;6.65;1.20;;;8.60;99.90;;;;;;1842122;77;21083;-78
2022/02/25 13:06:35;;;;;;;5.28;1.22;;;8.20;99.90;;;;;;1819409;78;21094;-81
2022/02/25 13:09:03;;;;;;;;;;;8.00;99.90;;;;;;1888089;76;21159;-78
2022/02/25 13:11:32;;;;;;;3.55;1.20;;;7.90;99.90;;;;;;1851881;76;20348;-79
2022/02/25 13:14:17;;;;;;;9.58;1.27;;;7.70;99.90;;;;;;1883902;76;21438;-78
2022/02/25 13:17:02;;;;;;;11.03;1.30;;;8.00;99.90;;;;;;1885206;75;21481;-79
2022/02/25 13:19:38;;;;;;;5.65;1.10;;;7.90;99.90;;;;;;1886716;75;21151;-76